createdAt,value
2022-09-21T00:01:19.931Z,18.42
2022-09-21T00:03:47.243Z,18.15
2022-09-21T00:06:17.079Z,20.60
2022-09-21T00:08:45.543Z,15.10
2022-09-21T00:11:25.057Z,15.88
2022-09-21T00:13:55.322Z,17.70
2022-09-21T00:16:22.648Z,14.77
2022-09-21T00:18:49.703Z,17.85
2022-09-21T00:21:17.373Z,14.38
2022-09-21T00:23:44.900Z,14.77
2022-09-21T00:26:20.076Z,16.77
2022-09-21T00:28:47.645Z,14.90
2022-09-21T00:31:17.747Z,15.60
2022-09-21T00:33:44.949Z,15.73
2022-09-21T00:36:16.837Z,18.90
2022-09-21T00:38:46.186Z,18.17
2022-09-21T00:43:47.344Z,19.13
2022-09-21T00:46:20.404Z,19.65
2022-09-21T00:48:47.258Z,21.10
2022-09-21T00:51:14.846Z,16.85
2022-09-21T00:53:42.006Z,18.80
2022-09-21T00:56:11.059Z,19.70
2022-09-21T00:58:43.885Z,21.23
2022-09-21T01:01:12.232Z,19.30
2022-09-21T01:03:39.626Z,19.50
2022-09-21T01:06:06.499Z,17.63
2022-09-21T01:08:34.435Z,17.63
2022-09-21T01:11:23.073Z,18.70
2022-09-21T01:14:08.420Z,17.77
2022-09-21T01:16:49.006Z,17.15
2022-09-21T01:19:40.444Z,18.42
2022-09-21T01:22:33.169Z,17.77
2022-09-21T01:25:24.294Z,16.50
2022-09-21T01:28:16.146Z,17.85
2022-09-21T01:30:48.946Z,18.00
2022-09-21T01:33:23.422Z,14.23
2022-09-21T01:35:56.370Z,15.13
2022-09-21T01:38:28.191Z,17.70
2022-09-21T01:41:07.181Z,16.98
2022-09-21T01:43:41.056Z,16.17
2022-09-21T01:46:13.882Z,15.25
2022-09-21T01:48:44.899Z,17.05
2022-09-21T01:51:15.589Z,17.42
2022-09-21T01:53:48.351Z,16.58
2022-09-21T01:56:30.847Z,15.90
2022-09-21T01:59:11.345Z,15.65
2022-09-21T02:02:06.323Z,15.07
2022-09-21T02:04:35.136Z,18.60
2022-09-21T02:07:02.598Z,16.05
2022-09-21T02:09:29.875Z,17.13
2022-09-21T02:11:58.234Z,17.45
2022-09-21T02:14:25.910Z,17.10
2022-09-21T02:17:06.252Z,20.45
2022-09-21T02:20:03.031Z,17.20
2022-09-21T02:22:40.961Z,16.85
2022-09-21T02:25:21.701Z,16.50
2022-09-21T02:27:51.617Z,16.85
2022-09-21T02:30:26.561Z,16.23
2022-09-21T02:33:06.485Z,15.52
2022-09-21T02:35:52.105Z,12.88
2022-09-21T02:38:41.040Z,15.32
2022-09-21T02:41:17.010Z,16.83
2022-09-21T02:43:49.083Z,15.00
2022-09-21T02:46:28.756Z,21.58
2022-09-21T02:49:00.870Z,13.38
2022-09-21T02:51:42.231Z,16.42
2022-09-21T02:54:13.928Z,17.80
2022-09-21T02:56:42.614Z,12.88
2022-09-21T02:59:10.822Z,15.63
2022-09-21T03:01:40.421Z,16.92
2022-09-21T03:04:07.553Z,14.20
2022-09-21T03:06:34.719Z,14.88
2022-09-21T03:09:01.581Z,15.70
2022-09-21T03:11:28.642Z,13.55
2022-09-21T03:13:55.423Z,13.90
2022-09-21T03:16:22.947Z,12.32
2022-09-21T03:18:50.116Z,13.10
2022-09-21T03:21:17.013Z,13.85
2022-09-21T03:23:43.743Z,13.45
2022-09-21T03:26:10.769Z,12.48
2022-09-21T03:28:37.523Z,14.40
2022-09-21T03:31:04.567Z,12.45
2022-09-21T03:33:31.621Z,14.38
2022-09-21T03:35:58.602Z,14.55
2022-09-21T03:38:26.967Z,11.48
2022-09-21T03:40:58.197Z,12.30
2022-09-21T03:43:25.413Z,16.25
2022-09-21T03:45:53.321Z,14.20
2022-09-21T03:48:21.145Z,13.60
2022-09-21T03:50:48.128Z,14.20
2022-09-21T03:53:15.045Z,14.18
2022-09-21T03:55:42.210Z,15.60
2022-09-21T03:58:09.210Z,15.38
2022-09-21T04:00:36.456Z,18.15
2022-09-21T04:03:03.634Z,16.33
2022-09-21T04:05:30.419Z,18.42
2022-09-21T04:07:57.473Z,19.40
2022-09-21T04:10:29.316Z,17.65
2022-09-21T04:13:01.454Z,18.45
2022-09-21T04:15:29.547Z,17.50
2022-09-21T04:17:56.806Z,19.85
2022-09-21T04:20:24.075Z,21.90
2022-09-21T04:22:51.894Z,19.20
2022-09-21T04:25:18.769Z,20.38
2022-09-21T04:27:45.602Z,18.35
2022-09-21T04:30:14.266Z,19.08
2022-09-21T04:32:41.104Z,19.65
2022-09-21T04:35:08.495Z,20.58
2022-09-21T04:37:35.544Z,18.95
2022-09-21T04:40:03.500Z,22.52
2022-09-21T04:42:30.856Z,21.13
2022-09-21T04:44:57.810Z,21.65
2022-09-21T04:47:25.327Z,21.95
2022-09-21T04:49:53.460Z,21.05
2022-09-21T04:52:20.798Z,23.83
2022-09-21T04:54:48.078Z,20.67
2022-09-21T04:57:15.466Z,22.20
2022-09-21T04:59:42.630Z,21.35
2022-09-21T05:02:09.480Z,24.02
2022-09-21T05:04:36.408Z,23.63
2022-09-21T05:07:03.653Z,23.20
2022-09-21T05:09:48.873Z,20.88
2022-09-21T05:12:15.871Z,24.60
2022-09-21T05:14:44.206Z,26.02
2022-09-21T05:17:12.142Z,23.20
2022-09-21T05:19:39.317Z,23.75
2022-09-21T05:22:06.127Z,22.92
2022-09-21T05:24:32.950Z,23.17
2022-09-21T05:27:00.370Z,29.40
2022-09-21T05:29:27.475Z,24.40
2022-09-21T05:32:06.752Z,26.02
2022-09-21T05:34:44.774Z,26.20
2022-09-21T05:37:45.555Z,27.27
2022-09-21T05:40:12.984Z,23.77
2022-09-21T05:42:41.367Z,24.42
2022-09-21T05:45:14.405Z,23.43
2022-09-21T05:48:06.978Z,28.38
2022-09-21T05:50:42.983Z,23.85
2022-09-21T05:53:18.931Z,26.10
2022-09-21T05:55:54.494Z,26.73
2022-09-21T05:58:26.669Z,23.30
2022-09-21T06:01:15.469Z,26.20
2022-09-21T06:03:43.025Z,22.52
2022-09-21T06:06:10.215Z,20.08
2022-09-21T06:08:37.047Z,19.70
2022-09-21T06:11:04.372Z,21.65
2022-09-21T06:13:31.345Z,23.65
2022-09-21T06:16:01.366Z,18.35
2022-09-21T06:18:28.317Z,21.52
2022-09-21T06:20:55.365Z,18.73
2022-09-21T06:23:22.113Z,19.33
2022-09-21T06:25:57.510Z,17.70
2022-09-21T06:28:25.806Z,18.33
2022-09-21T06:30:54.377Z,20.58
2022-09-21T06:33:23.571Z,23.00
2022-09-21T06:35:57.509Z,20.42
2022-09-21T06:38:25.662Z,23.38
2022-09-21T06:40:53.513Z,24.17
2022-09-21T06:43:20.793Z,23.50
2022-09-21T06:45:55.734Z,19.90
2022-09-21T06:48:23.804Z,21.80
2022-09-21T06:50:51.644Z,20.55
2022-09-21T06:53:18.450Z,23.58
2022-09-21T06:55:45.254Z,22.92
2022-09-21T06:58:12.316Z,20.77
2022-09-21T07:00:39.114Z,19.80
2022-09-21T07:03:05.966Z,24.75
2022-09-21T07:05:34.267Z,17.58
2022-09-21T07:08:01.325Z,16.58
2022-09-21T07:10:28.603Z,18.55
2022-09-21T07:12:55.913Z,20.20
2022-09-21T07:15:23.713Z,19.80
2022-09-21T07:17:52.409Z,17.13
2022-09-21T07:20:19.631Z,17.88
2022-09-21T07:22:46.363Z,17.75
2022-09-21T07:25:13.544Z,17.63
2022-09-21T07:27:40.734Z,17.70
2022-09-21T07:30:09.198Z,16.80
2022-09-21T07:32:36.574Z,12.57
2022-09-21T07:35:03.879Z,13.43
2022-09-21T07:37:31.729Z,14.27
2022-09-21T07:39:58.864Z,14.15
2022-09-21T07:42:27.985Z,15.02
2022-09-21T07:45:03.314Z,14.57
2022-09-21T07:47:31.518Z,13.85
2022-09-21T07:49:58.379Z,15.90
2022-09-21T07:52:25.189Z,15.43
2022-09-21T07:54:52.204Z,17.73
2022-09-21T07:57:37.373Z,13.90
2022-09-21T08:00:05.334Z,14.75
2022-09-21T08:02:32.215Z,14.07
2022-09-21T08:04:59.078Z,14.00
2022-09-21T08:07:27.916Z,16.55
2022-09-21T08:09:54.706Z,13.65
2022-09-21T08:12:21.568Z,16.17
2022-09-21T08:14:48.580Z,15.70
2022-09-21T08:17:15.698Z,13.90
2022-09-21T08:19:42.630Z,12.02
2022-09-21T08:22:09.460Z,11.90
2022-09-21T08:24:37.675Z,10.82
2022-09-21T08:27:05.142Z,16.45
2022-09-21T08:29:31.911Z,14.48
2022-09-21T08:31:58.850Z,11.25
2022-09-21T08:34:26.448Z,11.73
2022-09-21T08:36:55.676Z,12.77
2022-09-21T08:39:22.803Z,13.02
2022-09-21T08:41:49.748Z,11.00
2022-09-21T08:44:45.650Z,12.85
2022-09-21T08:47:20.262Z,10.52
2022-09-21T08:49:55.458Z,10.75
2022-09-21T08:52:25.128Z,15.90
2022-09-21T08:54:51.813Z,13.27
2022-09-21T08:57:20.446Z,12.00
2022-09-21T08:59:49.520Z,13.30
2022-09-21T09:02:31.530Z,10.25
2022-09-21T09:05:12.731Z,10.82
2022-09-21T09:07:59.602Z,13.27
2022-09-21T09:10:43.500Z,16.88
2022-09-21T09:13:34.703Z,9.75
2022-09-21T09:16:41.712Z,16.70
2022-09-21T09:19:30.199Z,9.18
2022-09-21T09:21:57.382Z,35.15
2022-09-21T09:24:49.000Z,16.95
2022-09-21T09:27:27.678Z,15.38
2022-09-21T09:30:15.147Z,11.32
2022-09-21T09:32:57.895Z,24.52
2022-09-21T09:35:33.198Z,14.27
2022-09-21T09:38:10.661Z,299.10
2022-09-21T09:41:11.243Z,61.90
2022-09-21T09:43:47.238Z,35.08
2022-09-21T09:46:19.951Z,68.20
2022-09-21T09:49:12.286Z,15.27
2022-09-21T09:51:40.641Z,138.65
2022-09-21T09:54:15.004Z,26.20
2022-09-21T09:56:42.370Z,240.60
2022-09-21T09:59:30.577Z,422.83
2022-09-21T10:02:20.316Z,208.68
2022-09-21T10:05:06.137Z,225.25
2022-09-21T10:07:43.454Z,77.30
2022-09-21T10:10:28.814Z,24.10
2022-09-21T10:13:03.080Z,33.95
2022-09-21T10:15:30.153Z,14.55
2022-09-21T10:18:08.436Z,7.82
2022-09-21T10:20:35.484Z,53.20
2022-09-21T10:23:03.438Z,10.13
2022-09-21T10:25:31.265Z,16.23
2022-09-21T10:27:59.286Z,10.00
2022-09-21T10:30:38.849Z,8.30
2022-09-21T10:33:23.974Z,35.33
2022-09-21T10:35:52.933Z,11.10
2022-09-21T10:38:27.659Z,55.88
2022-09-21T10:40:55.116Z,24.88
2022-09-21T10:43:39.816Z,9.77
2022-09-21T10:46:09.564Z,11.40
2022-09-21T10:48:37.504Z,9.27
2022-09-21T10:51:04.753Z,7.90
2022-09-21T10:53:36.894Z,13.93
2022-09-21T10:56:16.035Z,24.75
2022-09-21T10:59:20.707Z,19.98
2022-09-21T11:01:50.872Z,24.50
2022-09-21T11:04:20.841Z,8.45
2022-09-21T11:06:52.860Z,7.07
2022-09-21T11:09:32.288Z,3.70
2022-09-21T11:12:23.878Z,4.65
2022-09-21T11:15:00.943Z,2.90
2022-09-21T11:17:48.894Z,8.30
2022-09-21T11:20:30.962Z,6.93
2022-09-21T11:23:05.080Z,5.97
2022-09-21T11:25:44.306Z,7.03
2022-09-21T11:28:25.179Z,8.48
2022-09-21T11:31:13.357Z,6.80
2022-09-21T11:33:58.960Z,5.63
2022-09-21T11:36:35.508Z,14.50
2022-09-21T11:39:11.091Z,12.07
2022-09-21T11:41:57.344Z,9.32
2022-09-21T11:44:38.901Z,4.70
2022-09-21T11:47:18.785Z,4.22
2022-09-21T11:50:26.383Z,3.78
2022-09-21T11:53:25.568Z,5.22
2022-09-21T11:56:07.204Z,6.72
2022-09-21T11:58:47.478Z,6.28
2022-09-21T12:01:36.820Z,5.18
2022-09-21T12:04:15.717Z,3.95
2022-09-21T12:06:50.105Z,5.50
2022-09-21T12:09:23.119Z,3.28
2022-09-21T12:12:22.459Z,3.85
2022-09-21T12:14:59.756Z,5.00
2022-09-21T12:17:45.487Z,5.22
2022-09-21T12:20:18.065Z,4.85
2022-09-21T12:22:47.356Z,4.60
2022-09-21T12:25:20.143Z,5.60
2022-09-21T12:27:56.736Z,5.47
2022-09-21T12:30:24.708Z,9.70
2022-09-21T12:33:01.878Z,15.90
2022-09-21T12:35:40.840Z,6.72
2022-09-21T12:38:07.908Z,9.65
2022-09-21T12:41:27.391Z,17.98
2022-09-21T12:44:18.516Z,3.47
2022-09-21T12:46:54.328Z,4.72
2022-09-21T12:49:29.911Z,4.13
2022-09-21T12:52:03.317Z,6.90
2022-09-21T12:54:48.201Z,4.72
2022-09-21T12:57:58.716Z,4.78
2022-09-21T13:00:35.109Z,4.93
2022-09-21T13:03:37.838Z,6.22
2022-09-21T13:06:41.644Z,7.57
2022-09-21T13:09:12.705Z,4.05
2022-09-21T13:11:54.536Z,5.20
2022-09-21T13:14:24.295Z,5.88
2022-09-21T13:16:57.787Z,5.03
2022-09-21T13:19:27.092Z,4.43
2022-09-21T13:22:19.952Z,5.63
2022-09-21T13:25:03.109Z,5.60
2022-09-21T13:28:09.407Z,5.45
2022-09-21T13:30:44.735Z,4.63
2022-09-21T13:33:20.696Z,9.02
2022-09-21T13:35:50.805Z,6.20
2022-09-21T13:38:34.593Z,6.13
2022-09-21T13:41:02.989Z,9.18
2022-09-21T13:44:05.127Z,6.50
2022-09-21T13:46:35.271Z,6.85
2022-09-21T13:49:11.488Z,6.13
2022-09-21T13:52:01.598Z,6.55
2022-09-21T13:55:00.010Z,6.32
2022-09-21T13:57:46.317Z,6.72
2022-09-21T14:00:13.129Z,7.45
2022-09-21T14:02:44.880Z,7.07
2022-09-21T14:05:28.450Z,8.02
2022-09-21T14:08:03.010Z,6.95
2022-09-21T14:10:32.686Z,5.53
2022-09-21T14:13:02.083Z,5.63
2022-09-21T14:15:38.165Z,5.68
2022-09-21T14:18:17.261Z,5.32
2022-09-21T14:21:17.333Z,5.72
2022-09-21T14:24:06.171Z,4.93
2022-09-21T14:26:50.344Z,4.05
2022-09-21T14:29:36.383Z,8.10
2022-09-21T14:32:05.604Z,3.88
2022-09-21T14:37:16.977Z,6.75
2022-09-21T14:39:45.780Z,8.95
2022-09-21T14:42:19.546Z,39.55
2022-09-21T14:44:51.446Z,13.15
2022-09-21T14:47:36.663Z,4.63
2022-09-21T14:50:24.142Z,6.68
2022-09-21T14:53:28.313Z,3.72
2022-09-21T14:56:13.661Z,4.13
2022-09-21T14:58:54.143Z,9.73
2022-09-21T15:01:37.904Z,8.20
2022-09-21T15:04:29.277Z,9.13
2022-09-21T15:07:27.857Z,10.63
2022-09-21T15:10:37.960Z,9.40
2022-09-21T15:13:08.284Z,20.13
2022-09-21T15:16:21.989Z,8.45
2022-09-21T15:18:54.446Z,16.15
2022-09-21T15:21:27.876Z,18.42
2022-09-21T15:23:56.286Z,5.97
2022-09-21T15:26:26.847Z,4.55
2022-09-21T15:29:12.295Z,6.38
2022-09-21T15:31:42.069Z,5.38
2022-09-21T15:34:11.141Z,6.78
2022-09-21T15:36:43.267Z,11.02
2022-09-21T15:39:30.384Z,4.43
2022-09-21T15:42:09.366Z,6.97
2022-09-21T15:44:38.586Z,5.18
2022-09-21T15:47:12.631Z,8.27
2022-09-21T15:49:41.253Z,7.55
2022-09-21T15:52:13.901Z,7.50
2022-09-21T15:54:45.005Z,8.82
2022-09-21T15:57:39.117Z,6.65
2022-09-21T16:00:21.568Z,6.20
2022-09-21T16:03:05.723Z,8.55
2022-09-21T16:06:17.057Z,8.95
2022-09-21T16:08:43.879Z,15.40
2022-09-21T16:11:19.129Z,22.42
2022-09-21T16:14:06.340Z,118.60
2022-09-21T16:16:33.484Z,84.18
2022-09-21T16:19:00.337Z,25.83
2022-09-21T16:21:29.293Z,36.83
2022-09-21T16:23:58.180Z,40.28
2022-09-21T16:26:30.179Z,36.92
2022-09-21T16:29:26.438Z,37.40
2022-09-21T16:32:19.001Z,28.08
2022-09-21T16:34:51.850Z,32.63
2022-09-21T16:37:24.647Z,44.92
2022-09-21T16:39:54.010Z,43.30
2022-09-21T16:42:22.850Z,107.10
2022-09-21T16:44:50.480Z,77.43
2022-09-21T16:47:28.179Z,65.75
2022-09-21T16:50:00.278Z,62.42
2022-09-21T16:52:29.268Z,82.03
2022-09-21T16:54:58.125Z,65.45
2022-09-21T16:57:26.066Z,83.63
2022-09-21T16:59:53.676Z,89.45
2022-09-21T17:02:20.861Z,53.40
2022-09-21T17:04:48.236Z,33.60
2022-09-21T17:07:16.789Z,21.17
2022-09-21T17:09:47.647Z,17.98
2022-09-21T17:12:17.763Z,15.43
2022-09-21T17:14:47.064Z,17.95
2022-09-21T17:19:53.657Z,12.35
2022-09-21T17:22:21.943Z,13.90
2022-09-21T17:25:00.151Z,11.20
2022-09-21T17:27:29.207Z,17.30
2022-09-21T17:29:56.536Z,16.77
2022-09-21T17:32:24.740Z,22.23
2022-09-21T17:35:01.789Z,15.13
2022-09-21T17:37:29.359Z,18.27
2022-09-21T17:39:56.389Z,15.55
2022-09-21T17:42:25.194Z,18.67
2022-09-21T17:45:15.228Z,14.30
2022-09-21T17:47:42.572Z,20.67
2022-09-21T17:50:12.026Z,27.90
2022-09-21T17:53:01.533Z,19.67
2022-09-21T17:55:29.180Z,21.75
2022-09-21T17:58:05.874Z,25.17
2022-09-21T18:00:35.880Z,22.38
2022-09-21T18:03:02.936Z,31.40
2022-09-21T18:05:30.861Z,24.63
2022-09-21T18:07:58.424Z,21.95
2022-09-21T18:10:27.231Z,32.53
2022-09-21T18:13:07.320Z,25.23
2022-09-21T18:15:34.364Z,29.00
2022-09-21T18:18:10.017Z,27.70
2022-09-21T18:20:52.580Z,34.67
2022-09-21T18:23:19.481Z,33.97
2022-09-21T18:25:49.708Z,19.73
2022-09-21T18:28:58.179Z,15.75
2022-09-21T18:31:43.997Z,15.82
2022-09-21T18:34:29.317Z,17.33
2022-09-21T18:37:18.797Z,16.25
2022-09-21T18:42:53.227Z,13.10
2022-09-21T18:45:28.619Z,14.93
2022-09-21T18:48:26.761Z,15.70
2022-09-21T18:51:21.775Z,18.10
2022-09-21T18:53:57.174Z,16.50
2022-09-21T18:56:27.084Z,15.30
2022-09-21T18:58:54.382Z,12.48
2022-09-21T19:01:22.861Z,16.45
2022-09-21T19:03:50.583Z,13.02
2022-09-21T19:06:29.701Z,16.05
2022-09-21T19:08:59.269Z,14.93
2022-09-21T19:11:32.294Z,16.05
2022-09-21T19:14:17.570Z,11.30
2022-09-21T19:16:53.712Z,15.55
2022-09-21T19:19:39.430Z,13.02
2022-09-21T19:22:35.278Z,20.23
2022-09-21T19:25:12.494Z,16.05
2022-09-21T19:27:43.959Z,18.35
2022-09-21T19:30:15.619Z,14.85
2022-09-21T19:32:56.619Z,18.00
2022-09-21T19:35:32.111Z,17.60
2022-09-21T19:38:04.099Z,18.25
2022-09-21T19:40:33.774Z,17.10
2022-09-21T19:43:17.432Z,16.65
2022-09-21T19:46:23.856Z,16.10
2022-09-21T19:48:55.629Z,19.23
2022-09-21T19:51:37.812Z,17.23
2022-09-21T19:54:31.936Z,18.67
2022-09-21T19:57:17.469Z,20.90
2022-09-21T19:59:45.017Z,21.98
2022-09-21T20:02:14.853Z,20.85
2022-09-21T20:05:05.766Z,19.98
2022-09-21T20:07:51.938Z,17.75
2022-09-21T20:10:42.138Z,19.85
2022-09-21T20:13:27.759Z,21.58
2022-09-21T20:16:31.867Z,17.65
2022-09-21T20:19:11.727Z,16.40
2022-09-21T20:21:41.633Z,18.80
2022-09-21T20:36:57.272Z,16.63
2022-09-21T20:39:24.376Z,14.52
2022-09-21T20:41:52.614Z,11.98
2022-09-21T20:44:19.476Z,13.85
2022-09-21T20:46:46.577Z,13.38
2022-09-21T20:49:15.383Z,13.68
2022-09-21T20:51:42.613Z,14.85
2022-09-21T20:54:09.720Z,11.80
2022-09-21T20:56:37.039Z,11.18
2022-09-21T20:59:03.916Z,10.93
2022-09-21T21:01:31.092Z,12.57
2022-09-21T21:04:02.879Z,10.20
2022-09-21T21:06:35.059Z,12.35
2022-09-21T21:09:02.107Z,12.30
2022-09-21T21:11:29.023Z,10.63
2022-09-21T21:13:56.329Z,10.05
2022-09-21T21:16:23.704Z,12.27
2022-09-21T21:18:51.283Z,10.95
2022-09-21T21:21:18.125Z,8.52
2022-09-21T21:24:07.930Z,8.98
2022-09-21T21:27:00.232Z,9.23
2022-09-21T21:29:23.047Z,13.68
2022-09-21T21:31:50.474Z,11.57
2022-09-21T21:34:17.937Z,13.13
2022-09-21T21:36:45.562Z,10.35
2022-09-21T21:39:12.475Z,14.20
2022-09-21T21:41:39.370Z,12.48
2022-09-21T21:44:06.691Z,11.13
2022-09-21T21:46:33.641Z,8.48
2022-09-21T21:49:00.565Z,11.07
2022-09-21T21:51:27.873Z,9.63
2022-09-21T21:53:54.653Z,12.68
2022-09-21T21:56:23.269Z,15.50
2022-09-21T21:58:54.596Z,9.38
2022-09-21T22:01:26.451Z,13.55
2022-09-21T22:03:58.881Z,11.40
2022-09-21T22:06:27.319Z,11.15
2022-09-21T22:08:56.187Z,10.98
2022-09-21T22:11:24.553Z,9.95
2022-09-21T22:13:53.941Z,11.65
2022-09-21T22:16:22.939Z,13.05
2022-09-21T22:18:50.829Z,15.73
2022-09-21T22:21:26.859Z,12.55
2022-09-21T22:23:56.211Z,10.30
2022-09-21T22:26:24.176Z,15.38
2022-09-21T22:28:57.797Z,14.70
2022-09-21T22:31:27.947Z,13.07
2022-09-21T22:33:56.533Z,15.23
2022-09-21T22:36:25.322Z,11.73
2022-09-21T22:38:53.577Z,11.73
2022-09-21T22:41:23.180Z,12.88
2022-09-21T22:43:52.134Z,11.60
2022-09-21T22:46:20.161Z,13.18
2022-09-21T22:48:47.859Z,14.88
2022-09-21T22:51:16.464Z,13.75
2022-09-21T22:53:43.739Z,13.93
2022-09-21T22:56:16.490Z,16.33
2022-09-21T22:58:45.851Z,13.38
2022-09-21T23:01:13.134Z,17.00
2022-09-21T23:03:41.950Z,15.50
2022-09-21T23:06:11.751Z,16.17
2022-09-21T23:08:39.775Z,9.82
2022-09-21T23:11:13.893Z,15.90
2022-09-21T23:13:41.635Z,17.42
2022-09-21T23:16:11.410Z,11.32
2022-09-21T23:18:40.181Z,10.18
2022-09-21T23:21:11.420Z,17.20
2022-09-21T23:23:38.860Z,14.38
2022-09-21T23:26:07.252Z,11.23
2022-09-21T23:28:36.107Z,12.35
2022-09-21T23:31:06.448Z,12.52
2022-09-21T23:33:36.011Z,14.98
2022-09-21T23:36:04.613Z,12.40
2022-09-21T23:38:32.056Z,11.43
2022-09-21T23:41:06.363Z,14.50
2022-09-21T23:43:34.710Z,11.43
2022-09-21T23:46:02.134Z,10.75
2022-09-21T23:48:29.265Z,14.40
2022-09-21T23:50:57.682Z,11.73
2022-09-21T23:53:25.721Z,11.48
2022-09-21T23:55:52.704Z,12.38
2022-09-21T23:58:20.572Z,12.10
